Time,TemperatureF,DewpointF,PressureIn,WindDirection,WindDirectionDegrees,WindSpeedMPH,WindSpeedGustMPH,Humidity,HourlyPrecipIn,Conditions,Clouds,dailyrainin,SoftwareType,DateUTC
2013-05-19 07:00:00,52.9,48.8,30.30,SSW,203,0.0,0.0,86,0.00,,,0.00,WUHU216HW,2013-05-19 11:00:00,
2013-05-19 07:05:00,52.9,48.8,30.30,SE,135,0.0,0.0,86,0.02,,,0.02,WUHU216HW,2013-05-19 11:05:00,
2013-05-19 07:10:00,52.9,48.8,30.30,SE,135,0.0,0.0,86,0.02,,,0.02,WUHU216HW,2013-05-19 11:10:00,
2013-05-19 07:15:00,53.1,49.0,30.31,SE,135,0.0,0.0,86,0.02,,,0.02,WUHU216HW,2013-05-19 11:15:00,
2013-05-19 07:20:00,53.1,49.0,30.30,SE,135,0.0,0.0,86,0.02,,,0.02,WUHU216HW,2013-05-19 11:20:00,
2013-05-19 07:25:00,53.1,49.0,30.31,ESE,113,0.3,0.4,86,0.02,,,0.02,WUHU216HW,2013-05-19 11:25:00,
2013-05-19 07:30:00,53.1,49.0,30.31,ESE,113,0.0,0.4,86,0.02,,,0.02,WUHU216HW,2013-05-19 11:30:00,
2013-05-19 07:35:00,53.1,49.0,30.31,ESE,113,0.0,0.0,86,0.02,,,0.02,WUHU216HW,2013-05-19 11:35:00,
2013-05-19 07:40:00,53.1,49.0,30.30,ESE,113,0.0,0.0,86,0.02,,,0.02,WUHU216HW,2013-05-19 11:40:00,
2013-05-19 07:45:00,53.3,49.1,30.30,SE,135,0.0,0.0,86,0.02,,,0.02,WUHU216HW,2013-05-19 11:45:00,
2013-05-19 07:50:00,53.5,49.3,30.30,South,180,0.2,0.4,86,0.02,,,0.02,WUHU216HW,2013-05-19 11:50:00,
2013-05-19 07:55:00,53.6,49.5,30.31,SE,135,0.0,0.4,86,0.02,,,0.02,WUHU216HW,2013-05-19 11:55:00,
2013-05-19 08:00:00,53.6,49.5,30.31,SE,135,0.4,0.4,86,0.02,,,0.02,WUHU216HW,2013-05-19 12:00:00,
2013-05-19 08:05:00,53.8,49.7,30.31,SE,135,0.0,0.4,86,0.02,,,0.03,WUHU216HW,2013-05-19 12:05:00,
2013-05-19 08:10:00,54.0,49.9,30.31,SE,135,0.0,0.4,86,0.02,,,0.03,WUHU216HW,2013-05-19 12:10:00,
2013-05-19 08:15:00,54.0,49.9,30.31,ESE,113,0.2,0.2,86,0.02,,,0.03,WUHU216HW,2013-05-19 12:15:00,
2013-05-19 08:20:00,54.0,49.9,30.31,East,96,0.2,0.4,86,0.02,,,0.03,WUHU216HW,2013-05-19 12:20:00,
2013-05-19 08:25:00,54.2,50.0,30.31,East,90,0.3,0.4,86,0.02,,,0.03,WUHU216HW,2013-05-19 12:25:00,
2013-05-19 08:30:00,54.4,50.2,30.32,SSE,158,0.0,0.4,86,0.02,,,0.03,WUHU216HW,2013-05-19 12:30:00,
2013-05-19 08:35:00,54.4,50.2,30.31,SSW,203,0.0,0.9,86,0.02,,,0.03,WUHU216HW,2013-05-19 12:35:00,
2013-05-19 08:40:00,54.4,50.2,30.31,SSW,203,0.7,1.1,86,0.02,,,0.03,WUHU216HW,2013-05-19 12:40:00,
2013-05-19 08:45:00,54.4,50.2,30.31,ESE,113,0.0,1.1,86,0.02,,,0.03,WUHU216HW,2013-05-19 12:45:00,
2013-05-19 08:50:00,54.5,50.4,30.31,SW,225,0.4,0.4,86,0.02,,,0.03,WUHU216HW,2013-05-19 12:50:00,
2013-05-19 08:55:00,54.7,50.6,30.32,ESE,113,0.0,0.4,86,0.02,,,0.03,WUHU216HW,2013-05-19 12:55:00,
2013-05-19 09:00:00,54.7,50.6,30.32,SSW,203,0.4,0.4,86,0.02,,,0.03,WUHU216HW,2013-05-19 13:00:00,
2013-05-19 09:05:00,54.9,50.8,30.32,SSW,203,0.9,1.6,86,0.02,,,0.05,WUHU216HW,2013-05-19 13:05:00,
2013-05-19 09:10:00,55.1,51.0,30.33,SSW,209,1.4,1.8,86,0.02,,,0.05,WUHU216HW,2013-05-19 13:10:00,
2013-05-19 09:15:00,55.4,51.3,30.32,SSW,203,1.2,1.8,86,0.02,,,0.05,WUHU216HW,2013-05-19 13:15:00,
2013-05-19 09:20:00,55.4,51.3,30.33,SSW,202,1.5,2.5,86,0.02,,,0.05,WUHU216HW,2013-05-19 13:20:00,
2013-05-19 09:25:00,55.4,51.3,30.32,SW,214,1.8,2.7,86,0.02,,,0.05,WUHU216HW,2013-05-19 13:25:00,
2013-05-19 09:30:00,55.6,51.5,30.33,SSW,212,2.3,3.1,86,0.02,,,0.05,WUHU216HW,2013-05-19 13:30:00,
2013-05-19 09:35:00,55.6,51.5,30.33,SSW,203,1.0,3.1,86,0.02,,,0.05,WUHU216HW,2013-05-19 13:35:00,
2013-05-19 09:40:00,56.0,51.9,30.33,SW,225,1.8,2.9,86,0.02,,,0.05,WUHU216HW,2013-05-19 13:40:00,
2013-05-19 09:45:00,56.2,52.0,30.32,SSW,203,2.5,2.9,86,0.02,,,0.05,WUHU216HW,2013-05-19 13:45:00,
2013-05-19 09:50:00,56.3,52.2,30.32,SSW,204,3.0,4.3,86,0.02,,,0.05,WUHU216HW,2013-05-19 13:50:00,
2013-05-19 09:55:00,56.5,52.4,30.33,SSW,203,2.0,4.3,86,0.02,,,0.05,WUHU216HW,2013-05-19 13:55:00,
2013-05-19 10:00:00,56.5,52.4,30.32,SSW,203,2.5,3.1,86,0.02,,,0.05,WUHU216HW,2013-05-19 14:00:00,
2013-05-19 10:05:00,56.9,52.8,30.32,SSW,203,1.3,3.1,86,0.02,,,0.06,WUHU216HW,2013-05-19 14:05:00,
2013-05-19 10:10:00,57.1,52.9,30.32,SSW,203,1.9,2.7,86,0.02,,,0.06,WUHU216HW,2013-05-19 14:10:00,
2013-05-19 10:15:00,57.2,53.1,30.32,SSW,203,2.9,3.1,86,0.02,,,0.06,WUHU216HW,2013-05-19 14:15:00,
2013-05-19 10:20:00,57.4,53.6,30.33,SSW,203,1.1,3.8,87,0.02,,,0.06,WUHU216HW,2013-05-19 14:20:00,
2013-05-19 10:25:00,57.6,53.7,30.33,SSW,212,2.8,4.0,87,0.02,,,0.06,WUHU216HW,2013-05-19 14:25:00,
2013-05-19 10:30:00,57.8,53.7,30.33,SSW,208,2.5,4.0,86,0.02,,,0.06,WUHU216HW,2013-05-19 14:30:00,
2013-05-19 10:35:00,57.8,53.7,30.33,SSW,203,1.8,4.0,86,0.02,,,0.06,WUHU216HW,2013-05-19 14:35:00,
2013-05-19 10:40:00,57.6,53.5,30.33,SSW,203,1.6,2.9,86,0.02,,,0.06,WUHU216HW,2013-05-19 14:40:00,
2013-05-19 10:45:00,57.6,53.5,30.33,ENE,66,0.5,2.5,86,0.02,,,0.06,WUHU216HW,2013-05-19 14:45:00,
2013-05-19 10:50:00,57.6,53.5,30.33,SSW,203,1.8,2.5,86,0.02,,,0.06,WUHU216HW,2013-05-19 14:50:00,
2013-05-19 10:55:00,57.6,53.5,30.33,SSW,205,2.1,2.9,86,0.02,,,0.06,WUHU216HW,2013-05-19 14:55:00,
2013-05-19 11:00:00,57.8,53.7,30.33,SW,225,0.9,2.9,86,0.02,,,0.06,WUHU216HW,2013-05-19 15:00:00,
2013-05-19 11:05:00,58.0,54.1,30.33,SW,225,2.5,2.7,87,0.02,,,0.08,WUHU216HW,2013-05-19 15:05:00,
2013-05-19 11:10:00,58.1,54.0,30.33,SSW,203,1.1,2.7,86,0.02,,,0.08,WUHU216HW,2013-05-19 15:10:00,
2013-05-19 11:15:00,58.1,54.0,30.33,East,90,1.1,2.5,86,0.02,,,0.08,WUHU216HW,2013-05-19 15:15:00,
2013-05-19 11:20:00,58.1,54.0,30.33,ESE,115,0.5,1.1,86,0.02,,,0.08,WUHU216HW,2013-05-19 15:20:00,
2013-05-19 11:25:00,58.0,53.8,30.33,SSW,203,1.4,2.5,86,0.02,,,0.08,WUHU216HW,2013-05-19 15:25:00,
2013-05-19 11:30:00,57.8,53.7,30.32,SSW,206,1.1,2.5,86,0.02,,,0.08,WUHU216HW,2013-05-19 15:30:00,
2013-05-19 11:35:00,57.8,53.7,30.32,SW,221,1.0,2.2,86,0.02,,,0.08,WUHU216HW,2013-05-19 15:35:00,
2013-05-19 11:40:00,57.8,53.7,30.32,SSW,203,2.5,3.1,86,0.02,,,0.08,WUHU216HW,2013-05-19 15:40:00,
2013-05-19 11:45:00,57.8,53.7,30.32,SSW,203,1.1,3.1,86,0.02,,,0.08,WUHU216HW,2013-05-19 15:45:00,
2013-05-19 11:50:00,57.8,53.7,30.32,East,90,1.3,2.2,86,0.02,,,0.08,WUHU216HW,2013-05-19 15:50:00,
2013-05-19 11:55:00,57.8,53.9,30.32,SSW,203,3.1,3.4,87,0.02,,,0.08,WUHU216HW,2013-05-19 15:55:00,
2013-05-19 12:00:00,57.8,53.9,30.32,SSW,205,2.0,3.4,87,0.02,,,0.08,WUHU216HW,2013-05-19 16:00:00,
2013-05-19 12:05:00,58.0,54.1,30.31,SSW,203,0.9,2.9,87,0.02,,,0.09,WUHU216HW,2013-05-19 16:05:00,
2013-05-19 12:10:00,58.0,54.1,30.31,SW,224,1.0,2.7,87,0.02,,,0.09,WUHU216HW,2013-05-19 16:10:00,
2013-05-19 12:15:00,58.0,54.1,30.31,SSW,203,2.5,2.7,87,0.02,,,0.09,WUHU216HW,2013-05-19 16:15:00,
2013-05-19 12:20:00,57.8,53.9,30.31,South,186,1.5,2.5,87,0.02,,,0.09,WUHU216HW,2013-05-19 16:20:00,
2013-05-19 12:25:00,57.6,53.7,30.31,SSW,203,2.2,2.9,87,0.02,,,0.09,WUHU216HW,2013-05-19 16:25:00,
2013-05-19 12:30:00,57.6,53.7,30.31,SSW,203,3.1,3.1,87,0.02,,,0.09,WUHU216HW,2013-05-19 16:30:00,
2013-05-19 12:35:00,57.2,53.1,30.31,SSW,203,3.4,3.6,86,0.02,,,0.09,WUHU216HW,2013-05-19 16:35:00,
2013-05-19 12:40:00,57.2,53.1,30.31,SSW,206,1.0,4.3,86,0.02,,,0.09,WUHU216HW,2013-05-19 16:40:00,
2013-05-19 12:45:00,57.2,53.1,30.31,SW,218,0.7,4.3,86,0.02,,,0.09,WUHU216HW,2013-05-19 16:45:00,
2013-05-19 12:50:00,57.1,52.9,30.31,SSW,203,2.5,2.5,86,0.02,,,0.09,WUHU216HW,2013-05-19 16:50:00,
2013-05-19 12:55:00,57.1,52.9,30.30,SSW,202,1.7,3.1,86,0.02,,,0.09,WUHU216HW,2013-05-19 16:55:00,
2013-05-19 13:00:00,57.1,52.9,30.30,SSE,158,1.1,3.1,86,0.02,,,0.09,WUHU216HW,2013-05-19 17:00:00,
2013-05-19 13:05:00,56.9,52.8,30.30,WNW,286,0.6,2.7,86,0.02,,,0.11,WUHU216HW,2013-05-19 17:05:00,
2013-05-19 13:10:00,56.9,52.8,30.30,SSW,203,3.4,3.4,86,0.02,,,0.11,WUHU216HW,2013-05-19 17:10:00,
2013-05-19 13:15:00,56.9,52.8,30.30,SW,225,1.1,3.4,86,0.02,,,0.11,WUHU216HW,2013-05-19 17:15:00,
2013-05-19 13:20:00,56.9,52.8,30.30,SSW,207,1.6,2.7,86,0.02,,,0.11,WUHU216HW,2013-05-19 17:20:00,
2013-05-19 13:25:00,56.7,52.6,30.30,NNE,17,1.0,2.7,86,0.02,,,0.11,WUHU216HW,2013-05-19 17:25:00,
2013-05-19 13:30:00,56.5,52.4,30.30,SSE,150,0.9,2.5,86,0.02,,,0.11,WUHU216HW,2013-05-19 17:30:00,
2013-05-19 13:35:00,56.5,52.7,30.29,SSW,203,2.5,2.9,87,0.02,,,0.11,WUHU216HW,2013-05-19 17:35:00,
2013-05-19 13:40:00,56.5,52.7,30.29,SSW,203,1.1,2.9,87,0.02,,,0.11,WUHU216HW,2013-05-19 17:40:00,
2013-05-19 13:45:00,56.5,52.7,30.29,SSW,200,1.6,2.7,87,0.02,,,0.11,WUHU216HW,2013-05-19 17:45:00,
2013-05-19 13:50:00,56.5,52.7,30.29,SSW,203,1.3,2.7,87,0.02,,,0.11,WUHU216HW,2013-05-19 17:50:00,
2013-05-19 13:55:00,56.3,52.5,30.28,SSW,203,1.8,1.8,87,0.02,,,0.11,WUHU216HW,2013-05-19 17:55:00,
2013-05-19 14:00:00,56.5,52.7,30.29,SSW,205,1.0,1.8,87,0.02,,,0.11,WUHU216HW,2013-05-19 18:00:00,
2013-05-19 14:05:00,56.3,52.5,30.28,South,180,0.0,1.8,87,0.02,,,0.12,WUHU216HW,2013-05-19 18:05:00,
2013-05-19 14:10:00,56.3,52.5,30.28,SSW,203,0.4,1.3,87,0.02,,,0.12,WUHU216HW,2013-05-19 18:10:00,
2013-05-19 14:15:00,56.2,52.7,30.28,SSW,203,1.6,2.5,88,0.02,,,0.12,WUHU216HW,2013-05-19 18:15:00,
2013-05-19 14:20:00,56.3,52.8,30.28,SSW,203,2.9,2.9,88,0.02,,,0.12,WUHU216HW,2013-05-19 18:20:00,
2013-05-19 14:25:00,56.3,52.8,30.28,SSW,203,1.6,2.9,88,0.02,,,0.12,WUHU216HW,2013-05-19 18:25:00,
2013-05-19 14:30:00,56.3,52.8,30.28,South,180,1.8,2.9,88,0.02,,,0.12,WUHU216HW,2013-05-19 18:30:00,
2013-05-19 14:35:00,56.2,52.7,30.28,West,270,0.4,1.8,88,0.02,,,0.12,WUHU216HW,2013-05-19 18:35:00,
2013-05-19 14:40:00,56.0,52.5,30.28,South,180,0.4,1.1,88,0.02,,,0.12,WUHU216HW,2013-05-19 18:40:00,
2013-05-19 14:45:00,56.2,52.7,30.28,SE,142,0.3,1.1,88,0.02,,,0.12,WUHU216HW,2013-05-19 18:45:00,
2013-05-19 14:50:00,56.2,52.7,30.28,ENE,68,1.1,1.1,88,0.02,,,0.12,WUHU216HW,2013-05-19 18:50:00,
2013-05-19 14:55:00,56.2,52.7,30.28,SSW,194,0.5,1.1,88,0.02,,,0.12,WUHU216HW,2013-05-19 18:55:00,
2013-05-19 15:00:00,56.0,52.5,30.27,ESE,113,0.3,1.1,88,0.02,,,0.12,WUHU216HW,2013-05-19 19:00:00,
2013-05-19 15:05:00,56.0,52.5,30.27,SSW,203,0.9,0.9,88,0.02,,,0.14,WUHU216HW,2013-05-19 19:05:00,
2013-05-19 15:10:00,56.0,52.5,30.27,SSW,203,1.4,3.4,88,0.02,,,0.14,WUHU216HW,2013-05-19 19:10:00,
2013-05-19 15:15:00,56.2,52.7,30.27,SSW,203,2.5,3.4,88,0.02,,,0.14,WUHU216HW,2013-05-19 19:15:00,
2013-05-19 15:20:00,56.3,53.1,30.27,SSW,203,2.0,2.5,89,0.02,,,0.14,WUHU216HW,2013-05-19 19:20:00,
2013-05-19 15:25:00,56.5,53.3,30.26,WSW,248,1.1,2.5,89,0.02,,,0.14,WUHU216HW,2013-05-19 19:25:00,
2013-05-19 15:30:00,56.5,53.0,30.26,SSW,203,2.0,3.1,88,0.02,,,0.14,WUHU216HW,2013-05-19 19:30:00,
2013-05-19 15:35:00,56.5,53.0,30.26,NNE,23,0.2,3.1,88,0.02,,,0.14,WUHU216HW,2013-05-19 19:35:00,
2013-05-19 15:40:00,56.5,53.0,30.26,SSW,204,0.4,2.0,88,0.02,,,0.14,WUHU216HW,2013-05-19 19:40:00,
2013-05-19 15:45:00,56.3,52.8,30.26,NNE,23,1.8,1.8,88,0.02,,,0.14,WUHU216HW,2013-05-19 19:45:00,
2013-05-19 15:50:00,56.2,52.7,30.26,East,90,0.4,1.8,88,0.02,,,0.14,WUHU216HW,2013-05-19 19:50:00,
2013-05-19 15:55:00,56.2,52.7,30.26,ESE,122,0.4,2.5,88,0.02,,,0.14,WUHU216HW,2013-05-19 19:55:00,
2013-05-19 16:00:00,56.2,52.9,30.26,ESE,115,0.8,2.5,89,0.02,,,0.14,WUHU216HW,2013-05-19 20:00:00,
2013-05-19 16:05:00,56.2,52.9,30.26,East,90,0.3,1.1,89,0.02,,,0.16,WUHU216HW,2013-05-19 20:05:00,
2013-05-19 16:10:00,56.3,53.1,30.26,South,188,0.7,2.5,89,0.02,,,0.16,WUHU216HW,2013-05-19 20:10:00,
2013-05-19 16:15:00,56.3,53.1,30.25,ENE,68,0.2,2.5,89,0.02,,,0.16,WUHU216HW,2013-05-19 20:15:00,
2013-05-19 16:20:00,56.5,53.3,30.25,ESE,113,1.3,1.8,89,0.02,,,0.16,WUHU216HW,2013-05-19 20:20:00,
2013-05-19 16:25:00,56.5,53.3,30.25,East,90,0.9,1.8,89,0.02,,,0.16,WUHU216HW,2013-05-19 20:25:00,
2013-05-19 16:30:00,56.5,53.3,30.25,NE,45,0.7,1.3,89,0.02,,,0.16,WUHU216HW,2013-05-19 20:30:00,
2013-05-19 16:35:00,56.5,53.3,30.25,WSW,248,1.1,1.6,89,0.02,,,0.16,WUHU216HW,2013-05-19 20:35:00,
2013-05-19 16:40:00,56.5,53.3,30.26,North,0,2.9,2.9,89,0.02,,,0.16,WUHU216HW,2013-05-19 20:40:00,
2013-05-19 16:45:00,56.3,53.1,30.25,North,0,1.1,2.9,89,0.02,,,0.16,WUHU216HW,2013-05-19 20:45:00,
2013-05-19 16:50:00,56.3,53.1,30.25,South,180,0.4,2.9,89,0.02,,,0.16,WUHU216HW,2013-05-19 20:50:00,
2013-05-19 16:55:00,56.3,53.1,30.25,ESE,105,0.8,1.1,89,0.02,,,0.16,WUHU216HW,2013-05-19 20:55:00,
2013-05-19 17:00:00,56.2,52.9,30.25,ENE,64,0.6,1.1,89,0.02,,,0.16,WUHU216HW,2013-05-19 21:00:00,
2013-05-19 17:05:00,56.2,52.9,30.25,SSW,203,0.7,1.1,89,0.02,,,0.17,WUHU216HW,2013-05-19 21:05:00,
2013-05-19 17:10:00,56.3,53.1,30.25,SSE,158,0.7,1.1,89,0.02,,,0.17,WUHU216HW,2013-05-19 21:10:00,
2013-05-19 17:15:00,56.3,53.1,30.25,ESE,107,0.3,0.7,89,0.02,,,0.17,WUHU216HW,2013-05-19 21:15:00,
2013-05-19 17:20:00,56.2,52.9,30.25,North,0,0.9,1.3,89,0.02,,,0.17,WUHU216HW,2013-05-19 21:20:00,
2013-05-19 17:25:00,56.2,52.9,30.24,East,90,0.3,1.3,89,0.02,,,0.17,WUHU216HW,2013-05-19 21:25:00,
2013-05-19 17:30:00,56.2,52.9,30.24,North,0,2.5,2.5,89,0.02,,,0.17,WUHU216HW,2013-05-19 21:30:00,
2013-05-19 17:35:00,56.2,52.9,30.24,ENE,57,0.5,2.5,89,0.02,,,0.17,WUHU216HW,2013-05-19 21:35:00,
2013-05-19 17:40:00,56.0,52.7,30.24,ESE,119,0.5,1.1,89,0.02,,,0.17,WUHU216HW,2013-05-19 21:40:00,
2013-05-19 17:45:00,56.0,52.7,30.24,North,351,0.3,1.1,89,0.02,,,0.17,WUHU216HW,2013-05-19 21:45:00,
2013-05-19 17:50:00,56.0,52.7,30.24,SSW,203,1.1,1.1,89,0.02,,,0.17,WUHU216HW,2013-05-19 21:50:00,
2013-05-19 17:55:00,55.8,52.6,30.24,ESE,116,0.5,1.1,89,0.02,,,0.17,WUHU216HW,2013-05-19 21:55:00,
2013-05-19 18:00:00,55.8,52.6,30.24,SSW,200,2.1,4.0,89,0.02,,,0.17,WUHU216HW,2013-05-19 22:00:00,
2013-05-19 18:05:00,56.0,52.7,30.24,SW,225,1.8,4.0,89,0.02,,,0.19,WUHU216HW,2013-05-19 22:05:00,
2013-05-19 18:10:00,56.0,52.7,30.24,SSW,199,1.7,2.5,89,0.02,,,0.19,WUHU216HW,2013-05-19 22:10:00,
2013-05-19 18:15:00,56.0,52.7,30.24,SSW,211,1.3,2.5,89,0.02,,,0.19,WUHU216HW,2013-05-19 22:15:00,
2013-05-19 18:20:00,56.0,52.7,30.24,NNE,23,0.9,1.8,89,0.02,,,0.19,WUHU216HW,2013-05-19 22:20:00,
2013-05-19 18:25:00,55.8,52.9,30.24,ENE,68,1.3,1.3,90,0.02,,,0.19,WUHU216HW,2013-05-19 22:25:00,
2013-05-19 18:30:00,55.8,52.6,30.24,NNW,338,0.2,2.5,89,0.02,,,0.19,WUHU216HW,2013-05-19 22:30:00,
2013-05-19 18:35:00,55.6,52.7,30.24,NNE,15,0.6,2.5,90,0.02,,,0.19,WUHU216HW,2013-05-19 22:35:00,
2013-05-19 18:40:00,55.6,52.7,30.24,ESE,113,0.4,0.7,90,0.02,,,0.19,WUHU216HW,2013-05-19 22:40:00,
2013-05-19 18:45:00,55.6,52.7,30.24,SE,128,0.3,0.9,90,0.02,,,0.19,WUHU216HW,2013-05-19 22:45:00,
2013-05-19 18:50:00,55.4,52.6,30.23,SSE,150,0.5,0.9,90,0.02,,,0.19,WUHU216HW,2013-05-19 22:50:00,
2013-05-19 18:55:00,55.4,52.6,30.23,NNE,23,1.1,1.1,90,0.02,,,0.19,WUHU216HW,2013-05-19 22:55:00,
2013-05-19 19:00:00,55.4,52.6,30.23,SSW,203,0.0,1.1,90,0.02,,,0.19,WUHU216HW,2013-05-19 23:00:00,
2013-05-19 19:05:00,55.4,52.6,30.23,SSE,158,0.0,0.9,90,0.02,,,0.20,WUHU216HW,2013-05-19 23:05:00,
2013-05-19 19:10:00,55.4,52.6,30.23,SSW,203,1.1,1.1,90,0.02,,,0.20,WUHU216HW,2013-05-19 23:10:00,
2013-05-19 19:15:00,55.3,52.4,30.23,SW,221,0.5,1.3,90,0.02,,,0.20,WUHU216HW,2013-05-19 23:15:00,
2013-05-19 19:20:00,55.3,52.4,30.23,ESE,113,0.7,2.0,90,0.02,,,0.20,WUHU216HW,2013-05-19 23:20:00,
2013-05-19 19:25:00,55.3,52.4,30.23,South,191,0.4,2.9,90,0.02,,,0.20,WUHU216HW,2013-05-19 23:25:00,
2013-05-19 19:30:00,55.3,52.4,30.23,East,95,0.4,2.9,90,0.02,,,0.20,WUHU216HW,2013-05-19 23:30:00,
2013-05-19 19:35:00,55.3,52.4,30.23,SE,135,1.8,1.8,90,0.02,,,0.20,WUHU216HW,2013-05-19 23:35:00,
2013-05-19 19:40:00,55.1,52.2,30.23,North,0,0.0,1.8,90,0.02,,,0.20,WUHU216HW,2013-05-19 23:40:00,
2013-05-19 19:45:00,55.1,52.2,30.23,SW,217,0.3,1.8,90,0.02,,,0.20,WUHU216HW,2013-05-19 23:45:00,
2013-05-19 19:50:00,55.1,52.5,30.23,SSE,153,0.5,0.9,91,0.02,,,0.20,WUHU216HW,2013-05-19 23:50:00,
2013-05-19 19:55:00,55.1,52.5,30.23,SSW,203,0.0,0.7,91,0.02,,,0.20,WUHU216HW,2013-05-19 23:55:00,
2013-05-19 20:00:00,55.1,52.5,30.23,SW,225,0.7,0.7,91,0.02,,,0.20,WUHU216HW,2013-05-20 00:00:00,
2013-05-19 20:05:00,55.1,52.5,30.23,North,0,0.2,0.7,91,0.02,,,0.22,WUHU216HW,2013-05-20 00:05:00,
2013-05-19 20:10:00,55.1,52.5,30.23,East,85,0.5,0.9,91,0.02,,,0.22,WUHU216HW,2013-05-20 00:10:00,
2013-05-19 20:15:00,55.1,52.5,30.23,SSW,192,0.7,1.1,91,0.02,,,0.22,WUHU216HW,2013-05-20 00:15:00,
2013-05-19 20:20:00,55.1,52.5,30.23,SE,135,0.0,1.1,91,0.02,,,0.22,WUHU216HW,2013-05-20 00:20:00,
2013-05-19 20:25:00,55.1,52.5,30.23,SE,135,0.0,0.0,91,0.02,,,0.22,WUHU216HW,2013-05-20 00:25:00,
2013-05-19 20:30:00,54.9,52.3,30.23,ESE,113,0.0,0.0,91,0.02,,,0.22,WUHU216HW,2013-05-20 00:30:00,
2013-05-19 20:34:00,54.9,52.3,30.23,West,270,0.2,0.2,91,0.02,,,0.22,WUHU216HW,2013-05-20 00:34:00,
2013-05-19 20:39:00,54.9,52.3,30.23,NE,45,0.4,0.4,91,0.02,,,0.22,WUHU216HW,2013-05-20 00:39:00,
2013-05-19 20:44:00,54.9,52.3,30.23,West,270,0.2,0.4,91,0.02,,,0.22,WUHU216HW,2013-05-20 00:44:00,
2013-05-19 20:49:00,54.9,52.3,30.23,SSE,158,0.0,0.4,91,0.02,,,0.22,WUHU216HW,2013-05-20 00:49:00,
2013-05-19 20:54:00,54.9,52.3,30.23,SSE,158,0.0,0.2,91,0.02,,,0.22,WUHU216HW,2013-05-20 00:54:00,
2013-05-19 20:59:00,54.9,52.3,30.23,ENE,68,0.0,0.2,91,0.02,,,0.22,WUHU216HW,2013-05-20 00:59:00,
2013-05-19 21:04:00,54.9,52.3,30.23,ENE,68,0.3,0.4,91,0.02,,,0.23,WUHU216HW,2013-05-20 01:04:00,
2013-05-19 21:09:00,54.9,52.3,30.22,South,180,0.4,0.4,91,0.02,,,0.23,WUHU216HW,2013-05-20 01:09:00,
2013-05-19 21:14:00,54.9,52.3,30.22,East,90,0.3,0.7,91,0.02,,,0.23,WUHU216HW,2013-05-20 01:14:00,
2013-05-19 21:19:00,54.9,52.3,30.22,ESE,113,0.5,0.7,91,0.02,,,0.23,WUHU216HW,2013-05-20 01:19:00,
2013-05-19 21:24:00,54.9,52.3,30.21,ESE,116,0.4,0.9,91,0.02,,,0.23,WUHU216HW,2013-05-20 01:24:00,
2013-05-19 21:29:00,54.9,52.6,30.21,East,90,0.2,1.6,92,0.02,,,0.23,WUHU216HW,2013-05-20 01:29:00,